sensor_id;sensor_type;location;lat;lon;timestamp;temperature;humidity
33328;DHT22;19692;52.998;9.116;2022-07-09T00:00:39;14.50;99.90
33328;DHT22;19692;52.998;9.116;2022-07-09T00:03:05;14.60;99.90
33328;DHT22;19692;52.998;9.116;2022-07-09T00:05:30;14.60;99.90
33328;DHT22;19692;52.998;9.116;2022-07-09T00:07:56;14.70;99.90
33328;DHT22;19692;52.998;9.116;2022-07-09T00:10:22;14.70;99.90
33328;DHT22;19692;52.998;9.116;2022-07-09T00:12:48;14.80;99.90
33328;DHT22;19692;52.998;9.116;2022-07-09T00:15:14;14.80;99.90
33328;DHT22;19692;52.998;9.116;2022-07-09T00:17:39;14.80;99.90
33328;DHT22;19692;52.998;9.116;2022-07-09T00:20:05;14.90;99.90
33328;DHT22;19692;52.998;9.116;2022-07-09T00:22:32;14.80;99.90
33328;DHT22;19692;52.998;9.116;2022-07-09T00:24:59;14.80;99.90
33328;DHT22;19692;52.998;9.116;2022-07-09T00:27:25;14.80;99.90
33328;DHT22;19692;52.998;9.116;2022-07-09T00:29:51;14.80;99.90
33328;DHT22;19692;52.998;9.116;2022-07-09T00:32:18;14.80;99.90
33328;DHT22;19692;52.998;9.116;2022-07-09T00:34:44;14.80;99.90
33328;DHT22;19692;52.998;9.116;2022-07-09T00:37:10;14.80;99.90
33328;DHT22;19692;52.998;9.116;2022-07-09T00:39:37;14.80;99.90
33328;DHT22;19692;52.998;9.116;2022-07-09T00:42:07;14.80;99.90
33328;DHT22;19692;52.998;9.116;2022-07-09T00:44:34;14.90;99.90
33328;DHT22;19692;52.998;9.116;2022-07-09T00:47:01;14.80;99.90
33328;DHT22;19692;52.998;9.116;2022-07-09T00:49:29;14.80;99.90
33328;DHT22;19692;52.998;9.116;2022-07-09T00:51:56;14.80;99.90
33328;DHT22;19692;52.998;9.116;2022-07-09T00:54:23;14.80;99.90
33328;DHT22;19692;52.998;9.116;2022-07-09T00:56:53;14.70;99.90
33328;DHT22;19692;52.998;9.116;2022-07-09T00:59:20;14.70;99.90
33328;DHT22;19692;52.998;9.116;2022-07-09T01:01:46;14.70;99.90
33328;DHT22;19692;52.998;9.116;2022-07-09T01:04:14;14.70;99.90
33328;DHT22;19692;52.998;9.116;2022-07-09T01:06:40;14.60;99.90
33328;DHT22;19692;52.998;9.116;2022-07-09T01:09:05;14.70;99.90
33328;DHT22;19692;52.998;9.116;2022-07-09T01:11:32;14.60;99.90
33328;DHT22;19692;52.998;9.116;2022-07-09T01:13:58;14.50;99.90
33328;DHT22;19692;52.998;9.116;2022-07-09T01:16:31;14.50;99.90
33328;DHT22;19692;52.998;9.116;2022-07-09T01:18:57;14.50;99.90
33328;DHT22;19692;52.998;9.116;2022-07-09T01:21:23;14.50;99.90
33328;DHT22;19692;52.998;9.116;2022-07-09T01:23:49;14.40;99.90
33328;DHT22;19692;52.998;9.116;2022-07-09T01:26:15;14.40;99.90
33328;DHT22;19692;52.998;9.116;2022-07-09T01:28:41;14.40;99.90
33328;DHT22;19692;52.998;9.116;2022-07-09T01:31:07;14.30;99.90
33328;DHT22;19692;52.998;9.116;2022-07-09T01:33:33;14.30;99.90
33328;DHT22;19692;52.998;9.116;2022-07-09T01:35:59;14.30;99.90
33328;DHT22;19692;52.998;9.116;2022-07-09T01:38:25;14.30;99.90
33328;DHT22;19692;52.998;9.116;2022-07-09T01:40:50;14.30;99.90
33328;DHT22;19692;52.998;9.116;2022-07-09T01:43:16;14.30;99.90
33328;DHT22;19692;52.998;9.116;2022-07-09T01:45:42;14.30;99.90
33328;DHT22;19692;52.998;9.116;2022-07-09T01:48:08;14.30;99.90
33328;DHT22;19692;52.998;9.116;2022-07-09T01:50:33;14.30;99.90
33328;DHT22;19692;52.998;9.116;2022-07-09T01:52:59;14.30;99.90
33328;DHT22;19692;52.998;9.116;2022-07-09T01:55:25;14.30;99.90
33328;DHT22;19692;52.998;9.116;2022-07-09T01:57:51;14.40;99.90
33328;DHT22;19692;52.998;9.116;2022-07-09T02:00:17;14.30;99.90
33328;DHT22;19692;52.998;9.116;2022-07-09T02:02:44;14.30;99.90
33328;DHT22;19692;52.998;9.116;2022-07-09T02:05:10;14.20;99.90
33328;DHT22;19692;52.998;9.116;2022-07-09T02:07:36;14.20;99.90
33328;DHT22;19692;52.998;9.116;2022-07-09T02:10:03;14.20;99.90
33328;DHT22;19692;52.998;9.116;2022-07-09T02:12:30;14.30;99.90
33328;DHT22;19692;52.998;9.116;2022-07-09T02:14:55;14.30;99.90
33328;DHT22;19692;52.998;9.116;2022-07-09T02:17:21;14.20;99.90
33328;DHT22;19692;52.998;9.116;2022-07-09T02:19:47;14.30;99.90
33328;DHT22;19692;52.998;9.116;2022-07-09T02:22:13;14.30;99.90
33328;DHT22;19692;52.998;9.116;2022-07-09T02:24:38;14.40;99.90
33328;DHT22;19692;52.998;9.116;2022-07-09T02:27:05;14.40;99.90
33328;DHT22;19692;52.998;9.116;2022-07-09T02:29:31;14.40;99.90
33328;DHT22;19692;52.998;9.116;2022-07-09T02:31:56;14.40;99.90
33328;DHT22;19692;52.998;9.116;2022-07-09T02:34:23;14.40;99.90
33328;DHT22;19692;52.998;9.116;2022-07-09T02:36:50;14.40;99.90
33328;DHT22;19692;52.998;9.116;2022-07-09T02:39:16;14.40;99.90
33328;DHT22;19692;52.998;9.116;2022-07-09T02:41:42;14.30;99.90
33328;DHT22;19692;52.998;9.116;2022-07-09T02:44:08;14.30;99.90
33328;DHT22;19692;52.998;9.116;2022-07-09T02:46:34;14.40;99.90
33328;DHT22;19692;52.998;9.116;2022-07-09T02:49:00;14.40;99.90
33328;DHT22;19692;52.998;9.116;2022-07-09T02:51:26;14.40;99.90
33328;DHT22;19692;52.998;9.116;2022-07-09T02:53:51;14.30;99.90
33328;DHT22;19692;52.998;9.116;2022-07-09T02:56:17;14.30;99.90
33328;DHT22;19692;52.998;9.116;2022-07-09T02:58:43;14.30;99.90
33328;DHT22;19692;52.998;9.116;2022-07-09T03:01:09;14.30;99.90
33328;DHT22;19692;52.998;9.116;2022-07-09T03:03:35;14.30;99.90
33328;DHT22;19692;52.998;9.116;2022-07-09T03:06:01;14.30;99.90
33328;DHT22;19692;52.998;9.116;2022-07-09T03:08:33;14.30;99.90
33328;DHT22;19692;52.998;9.116;2022-07-09T03:10:59;14.30;99.90
33328;DHT22;19692;52.998;9.116;2022-07-09T03:13:25;14.30;99.90
33328;DHT22;19692;52.998;9.116;2022-07-09T03:15:50;14.30;99.90
33328;DHT22;19692;52.998;9.116;2022-07-09T03:18:16;14.30;99.90
33328;DHT22;19692;52.998;9.116;2022-07-09T03:20:42;14.40;99.90
33328;DHT22;19692;52.998;9.116;2022-07-09T03:23:08;14.40;99.90
33328;DHT22;19692;52.998;9.116;2022-07-09T03:25:33;14.40;99.90
33328;DHT22;19692;52.998;9.116;2022-07-09T03:27:59;14.30;99.90
33328;DHT22;19692;52.998;9.116;2022-07-09T03:30:25;14.40;99.90
33328;DHT22;19692;52.998;9.116;2022-07-09T03:32:51;14.40;99.90
33328;DHT22;19692;52.998;9.116;2022-07-09T03:35:17;14.40;99.90
33328;DHT22;19692;52.998;9.116;2022-07-09T03:37:43;14.50;99.90
33328;DHT22;19692;52.998;9.116;2022-07-09T03:40:09;14.50;99.90
33328;DHT22;19692;52.998;9.116;2022-07-09T03:42:35;14.50;99.90
33328;DHT22;19692;52.998;9.116;2022-07-09T03:45:00;14.50;99.90
33328;DHT22;19692;52.998;9.116;2022-07-09T03:47:26;14.50;99.90
33328;DHT22;19692;52.998;9.116;2022-07-09T03:49:52;14.50;99.90
33328;DHT22;19692;52.998;9.116;2022-07-09T03:52:18;14.50;99.90
33328;DHT22;19692;52.998;9.116;2022-07-09T03:54:44;14.50;99.90
33328;DHT22;19692;52.998;9.116;2022-07-09T03:57:10;14.50;99.90
33328;DHT22;19692;52.998;9.116;2022-07-09T03:59:36;14.50;99.90
33328;DHT22;19692;52.998;9.116;2022-07-09T04:02:01;14.50;99.90
33328;DHT22;19692;52.998;9.116;2022-07-09T04:04:28;14.60;99.90
33328;DHT22;19692;52.998;9.116;2022-07-09T04:06:54;14.60;99.90
33328;DHT22;19692;52.998;9.116;2022-07-09T04:09:21;14.70;99.90
33328;DHT22;19692;52.998;9.116;2022-07-09T04:11:47;14.70;99.90
33328;DHT22;19692;52.998;9.116;2022-07-09T04:14:13;14.80;99.90
33328;DHT22;19692;52.998;9.116;2022-07-09T04:16:45;14.80;99.90
33328;DHT22;19692;52.998;9.116;2022-07-09T04:19:12;14.80;99.90
33328;DHT22;19692;52.998;9.116;2022-07-09T04:21:38;14.90;99.90
33328;DHT22;19692;52.998;9.116;2022-07-09T04:24:04;14.90;99.90
33328;DHT22;19692;52.998;9.116;2022-07-09T04:26:30;14.90;99.90
33328;DHT22;19692;52.998;9.116;2022-07-09T04:28:55;15.00;99.90
33328;DHT22;19692;52.998;9.116;2022-07-09T04:31:21;15.00;99.90
33328;DHT22;19692;52.998;9.116;2022-07-09T04:33:47;15.10;99.90
33328;DHT22;19692;52.998;9.116;2022-07-09T04:36:13;15.10;99.90
33328;DHT22;19692;52.998;9.116;2022-07-09T04:38:39;15.10;99.90
33328;DHT22;19692;52.998;9.116;2022-07-09T04:41:05;15.20;99.90
33328;DHT22;19692;52.998;9.116;2022-07-09T04:43:31;15.20;99.90
33328;DHT22;19692;52.998;9.116;2022-07-09T04:45:57;15.20;99.90
33328;DHT22;19692;52.998;9.116;2022-07-09T04:48:24;15.10;99.90
33328;DHT22;19692;52.998;9.116;2022-07-09T04:50:50;15.10;99.90
33328;DHT22;19692;52.998;9.116;2022-07-09T04:53:16;15.20;99.90
33328;DHT22;19692;52.998;9.116;2022-07-09T04:55:41;15.20;99.90
33328;DHT22;19692;52.998;9.116;2022-07-09T04:58:08;15.30;99.90
33328;DHT22;19692;52.998;9.116;2022-07-09T05:00:34;15.40;99.90
33328;DHT22;19692;52.998;9.116;2022-07-09T05:03:00;15.40;99.90
33328;DHT22;19692;52.998;9.116;2022-07-09T05:05:26;15.40;99.90
33328;DHT22;19692;52.998;9.116;2022-07-09T05:07:52;15.50;99.90
33328;DHT22;19692;52.998;9.116;2022-07-09T05:10:18;15.60;99.90
33328;DHT22;19692;52.998;9.116;2022-07-09T05:12:45;15.70;99.90
33328;DHT22;19692;52.998;9.116;2022-07-09T05:15:12;15.70;99.90
33328;DHT22;19692;52.998;9.116;2022-07-09T05:17:38;15.80;99.90
33328;DHT22;19692;52.998;9.116;2022-07-09T05:20:06;15.90;99.90
33328;DHT22;19692;52.998;9.116;2022-07-09T05:22:35;16.00;99.90
33328;DHT22;19692;52.998;9.116;2022-07-09T05:25:02;16.00;99.90
33328;DHT22;19692;52.998;9.116;2022-07-09T05:27:28;15.90;99.90
33328;DHT22;19692;52.998;9.116;2022-07-09T05:29:54;15.90;99.90
33328;DHT22;19692;52.998;9.116;2022-07-09T05:32:20;15.80;99.90
33328;DHT22;19692;52.998;9.116;2022-07-09T05:34:46;15.90;99.90
33328;DHT22;19692;52.998;9.116;2022-07-09T05:37:12;15.90;99.90
33328;DHT22;19692;52.998;9.116;2022-07-09T05:39:38;16.00;99.90
33328;DHT22;19692;52.998;9.116;2022-07-09T05:42:04;16.00;99.90
33328;DHT22;19692;52.998;9.116;2022-07-09T05:44:30;16.00;99.90
33328;DHT22;19692;52.998;9.116;2022-07-09T05:46:56;15.90;99.90
33328;DHT22;19692;52.998;9.116;2022-07-09T05:49:23;16.00;99.90
33328;DHT22;19692;52.998;9.116;2022-07-09T05:51:48;16.00;99.90
33328;DHT22;19692;52.998;9.116;2022-07-09T05:54:14;16.00;99.90
33328;DHT22;19692;52.998;9.116;2022-07-09T05:56:40;16.10;99.90
33328;DHT22;19692;52.998;9.116;2022-07-09T05:59:07;16.10;99.90
33328;DHT22;19692;52.998;9.116;2022-07-09T06:01:33;16.20;99.90
33328;DHT22;19692;52.998;9.116;2022-07-09T06:04:04;16.20;99.90
33328;DHT22;19692;52.998;9.116;2022-07-09T06:06:30;16.20;99.90
33328;DHT22;19692;52.998;9.116;2022-07-09T06:08:56;16.20;99.90
33328;DHT22;19692;52.998;9.116;2022-07-09T06:11:22;16.20;99.90
33328;DHT22;19692;52.998;9.116;2022-07-09T06:13:48;16.20;99.90
33328;DHT22;19692;52.998;9.116;2022-07-09T06:16:14;16.30;99.90
33328;DHT22;19692;52.998;9.116;2022-07-09T06:18:39;16.40;99.90
33328;DHT22;19692;52.998;9.116;2022-07-09T06:21:05;16.50;99.90
33328;DHT22;19692;52.998;9.116;2022-07-09T06:23:31;16.50;99.90
33328;DHT22;19692;52.998;9.116;2022-07-09T06:25:57;16.60;99.90
33328;DHT22;19692;52.998;9.116;2022-07-09T06:28:22;16.60;99.90
33328;DHT22;19692;52.998;9.116;2022-07-09T06:30:48;16.60;99.90
33328;DHT22;19692;52.998;9.116;2022-07-09T06:33:14;16.70;99.90
33328;DHT22;19692;52.998;9.116;2022-07-09T06:35:39;16.60;99.90
33328;DHT22;19692;52.998;9.116;2022-07-09T06:38:05;16.60;99.90
33328;DHT22;19692;52.998;9.116;2022-07-09T06:40:31;16.60;99.90
33328;DHT22;19692;52.998;9.116;2022-07-09T06:42:58;16.60;99.90
33328;DHT22;19692;52.998;9.116;2022-07-09T06:45:23;16.60;99.90
33328;DHT22;19692;52.998;9.116;2022-07-09T06:47:49;16.70;99.90
33328;DHT22;19692;52.998;9.116;2022-07-09T06:50:15;16.70;99.90
33328;DHT22;19692;52.998;9.116;2022-07-09T06:52:41;16.70;99.90
33328;DHT22;19692;52.998;9.116;2022-07-09T06:55:07;16.80;99.90
33328;DHT22;19692;52.998;9.116;2022-07-09T06:57:33;16.80;99.90
33328;DHT22;19692;52.998;9.116;2022-07-09T06:59:58;16.80;99.90
33328;DHT22;19692;52.998;9.116;2022-07-09T07:02:24;16.90;99.90
33328;DHT22;19692;52.998;9.116;2022-07-09T07:04:50;17.00;99.90
33328;DHT22;19692;52.998;9.116;2022-07-09T07:07:16;17.20;99.90
33328;DHT22;19692;52.998;9.116;2022-07-09T07:09:42;17.40;99.90
33328;DHT22;19692;52.998;9.116;2022-07-09T07:12:07;17.50;99.90
33328;DHT22;19692;52.998;9.116;2022-07-09T07:14:33;17.60;99.90
33328;DHT22;19692;52.998;9.116;2022-07-09T07:16:59;17.50;99.90
33328;DHT22;19692;52.998;9.116;2022-07-09T07:19:25;17.50;99.90
33328;DHT22;19692;52.998;9.116;2022-07-09T07:21:51;17.50;99.90
33328;DHT22;19692;52.998;9.116;2022-07-09T07:24:16;17.50;99.90
33328;DHT22;19692;52.998;9.116;2022-07-09T07:26:42;17.40;99.90
33328;DHT22;19692;52.998;9.116;2022-07-09T07:29:08;17.40;99.90
33328;DHT22;19692;52.998;9.116;2022-07-09T07:31:34;17.60;99.90
33328;DHT22;19692;52.998;9.116;2022-07-09T07:34:00;17.70;99.90
33328;DHT22;19692;52.998;9.116;2022-07-09T07:36:26;17.80;99.90
33328;DHT22;19692;52.998;9.116;2022-07-09T07:38:52;17.90;99.90
33328;DHT22;19692;52.998;9.116;2022-07-09T07:41:18;17.80;99.90
33328;DHT22;19692;52.998;9.116;2022-07-09T07:43:44;17.80;99.90
33328;DHT22;19692;52.998;9.116;2022-07-09T07:46:10;17.80;99.90
33328;DHT22;19692;52.998;9.116;2022-07-09T07:48:36;17.80;99.90
33328;DHT22;19692;52.998;9.116;2022-07-09T07:51:03;17.90;99.90
33328;DHT22;19692;52.998;9.116;2022-07-09T07:53:33;17.90;99.90
33328;DHT22;19692;52.998;9.116;2022-07-09T07:56:08;18.00;99.90
33328;DHT22;19692;52.998;9.116;2022-07-09T07:58:34;18.00;99.90
33328;DHT22;19692;52.998;9.116;2022-07-09T08:01:00;18.00;99.90
33328;DHT22;19692;52.998;9.116;2022-07-09T08:03:26;18.20;99.90
33328;DHT22;19692;52.998;9.116;2022-07-09T08:05:52;18.20;99.90
33328;DHT22;19692;52.998;9.116;2022-07-09T08:08:18;18.30;99.90
33328;DHT22;19692;52.998;9.116;2022-07-09T08:10:47;18.40;99.90
33328;DHT22;19692;52.998;9.116;2022-07-09T08:13:17;18.40;99.90
33328;DHT22;19692;52.998;9.116;2022-07-09T08:15:43;18.50;99.90
33328;DHT22;19692;52.998;9.116;2022-07-09T08:18:09;18.70;99.90
33328;DHT22;19692;52.998;9.116;2022-07-09T08:20:41;18.70;99.90
33328;DHT22;19692;52.998;9.116;2022-07-09T08:23:07;18.60;99.90
33328;DHT22;19692;52.998;9.116;2022-07-09T08:25:33;18.70;99.90
33328;DHT22;19692;52.998;9.116;2022-07-09T08:27:59;18.70;99.90
33328;DHT22;19692;52.998;9.116;2022-07-09T08:30:26;18.80;99.90
33328;DHT22;19692;52.998;9.116;2022-07-09T08:32:52;18.90;99.90
33328;DHT22;19692;52.998;9.116;2022-07-09T08:35:18;18.80;99.90
33328;DHT22;19692;52.998;9.116;2022-07-09T08:37:43;18.80;99.90
33328;DHT22;19692;52.998;9.116;2022-07-09T08:40:10;18.70;99.90
33328;DHT22;19692;52.998;9.116;2022-07-09T08:42:36;18.60;99.90
33328;DHT22;19692;52.998;9.116;2022-07-09T08:45:02;18.70;99.90
33328;DHT22;19692;52.998;9.116;2022-07-09T08:47:29;18.90;99.90
33328;DHT22;19692;52.998;9.116;2022-07-09T08:49:57;19.10;99.90
33328;DHT22;19692;52.998;9.116;2022-07-09T08:52:24;19.30;99.90
33328;DHT22;19692;52.998;9.116;2022-07-09T08:54:54;19.30;99.90
33328;DHT22;19692;52.998;9.116;2022-07-09T08:57:20;19.60;99.90
33328;DHT22;19692;52.998;9.116;2022-07-09T08:59:46;19.80;99.90
33328;DHT22;19692;52.998;9.116;2022-07-09T09:02:12;19.90;99.90
33328;DHT22;19692;52.998;9.116;2022-07-09T09:04:39;20.00;99.90
33328;DHT22;19692;52.998;9.116;2022-07-09T09:07:16;20.10;99.90
33328;DHT22;19692;52.998;9.116;2022-07-09T09:09:43;20.40;99.90
33328;DHT22;19692;52.998;9.116;2022-07-09T09:12:10;20.60;99.90
33328;DHT22;19692;52.998;9.116;2022-07-09T09:14:36;20.50;99.90
33328;DHT22;19692;52.998;9.116;2022-07-09T09:17:09;20.40;99.90
33328;DHT22;19692;52.998;9.116;2022-07-09T09:19:37;20.50;99.90
33328;DHT22;19692;52.998;9.116;2022-07-09T09:22:05;20.70;99.90
33328;DHT22;19692;52.998;9.116;2022-07-09T09:24:32;20.60;99.90
33328;DHT22;19692;52.998;9.116;2022-07-09T09:26:59;20.50;99.90
33328;DHT22;19692;52.998;9.116;2022-07-09T09:29:26;20.50;99.90
33328;DHT22;19692;52.998;9.116;2022-07-09T09:31:53;20.90;99.90
33328;DHT22;19692;52.998;9.116;2022-07-09T09:34:20;20.90;99.90
33328;DHT22;19692;52.998;9.116;2022-07-09T09:36:47;20.60;99.90
33328;DHT22;19692;52.998;9.116;2022-07-09T09:41:52;20.70;99.90
33328;DHT22;19692;52.998;9.116;2022-07-09T09:46:53;21.80;99.90
33328;DHT22;19692;52.998;9.116;2022-07-09T09:49:20;22.40;99.90
33328;DHT22;19692;52.998;9.116;2022-07-09T09:54:16;22.30;99.90
33328;DHT22;19692;52.998;9.116;2022-07-09T09:56:44;22.00;99.90
33328;DHT22;19692;52.998;9.116;2022-07-09T09:59:11;22.30;99.90
33328;DHT22;19692;52.998;9.116;2022-07-09T10:01:41;22.30;99.90
33328;DHT22;19692;52.998;9.116;2022-07-09T10:04:13;22.30;99.90
33328;DHT22;19692;52.998;9.116;2022-07-09T10:06:40;22.30;99.90
33328;DHT22;19692;52.998;9.116;2022-07-09T10:09:08;22.50;99.90
33328;DHT22;19692;52.998;9.116;2022-07-09T10:11:40;22.50;99.90
33328;DHT22;19692;52.998;9.116;2022-07-09T10:14:07;22.40;99.90
33328;DHT22;19692;52.998;9.116;2022-07-09T10:16:38;22.30;99.90
33328;DHT22;19692;52.998;9.116;2022-07-09T10:19:05;22.20;99.90
33328;DHT22;19692;52.998;9.116;2022-07-09T10:21:37;22.10;99.90
33328;DHT22;19692;52.998;9.116;2022-07-09T10:24:07;22.10;99.90
33328;DHT22;19692;52.998;9.116;2022-07-09T10:26:46;22.10;99.90
33328;DHT22;19692;52.998;9.116;2022-07-09T10:29:26;22.20;99.90
33328;DHT22;19692;52.998;9.116;2022-07-09T10:31:56;22.30;99.90
33328;DHT22;19692;52.998;9.116;2022-07-09T10:37:04;21.90;99.90
33328;DHT22;19692;52.998;9.116;2022-07-09T10:39:30;21.80;99.90
33328;DHT22;19692;52.998;9.116;2022-07-09T10:42:00;21.80;99.90
33328;DHT22;19692;52.998;9.116;2022-07-09T10:44:37;22.00;99.90
33328;DHT22;19692;52.998;9.116;2022-07-09T10:47:06;22.00;99.90
33328;DHT22;19692;52.998;9.116;2022-07-09T10:49:36;21.70;99.90
33328;DHT22;19692;52.998;9.116;2022-07-09T10:52:03;21.50;99.90
33328;DHT22;19692;52.998;9.116;2022-07-09T10:54:30;21.40;99.90
33328;DHT22;19692;52.998;9.116;2022-07-09T10:56:57;21.30;99.90
33328;DHT22;19692;52.998;9.116;2022-07-09T10:59:24;20.90;99.90
33328;DHT22;19692;52.998;9.116;2022-07-09T11:01:50;19.60;99.90
33328;DHT22;19692;52.998;9.116;2022-07-09T11:04:31;18.70;99.90
33328;DHT22;19692;52.998;9.116;2022-07-09T11:06:58;18.00;99.90
33328;DHT22;19692;52.998;9.116;2022-07-09T11:09:27;17.60;99.90
33328;DHT22;19692;52.998;9.116;2022-07-09T11:11:56;17.50;99.90
33328;DHT22;19692;52.998;9.116;2022-07-09T11:14:22;17.60;99.90
33328;DHT22;19692;52.998;9.116;2022-07-09T11:16:55;17.70;99.90
33328;DHT22;19692;52.998;9.116;2022-07-09T11:19:22;17.80;99.90
33328;DHT22;19692;52.998;9.116;2022-07-09T11:21:48;17.90;99.90
33328;DHT22;19692;52.998;9.116;2022-07-09T11:24:17;17.90;99.90
33328;DHT22;19692;52.998;9.116;2022-07-09T11:26:45;18.00;99.90
33328;DHT22;19692;52.998;9.116;2022-07-09T11:29:12;18.10;99.90
33328;DHT22;19692;52.998;9.116;2022-07-09T11:31:49;18.10;99.90
33328;DHT22;19692;52.998;9.116;2022-07-09T11:34:18;18.40;99.90
33328;DHT22;19692;52.998;9.116;2022-07-09T11:36:47;18.80;99.90
33328;DHT22;19692;52.998;9.116;2022-07-09T11:39:26;19.40;99.90
33328;DHT22;19692;52.998;9.116;2022-07-09T11:41:58;20.20;99.90
33328;DHT22;19692;52.998;9.116;2022-07-09T11:44:29;20.80;99.90
33328;DHT22;19692;52.998;9.116;2022-07-09T11:47:11;21.10;99.90
33328;DHT22;19692;52.998;9.116;2022-07-09T11:49:41;21.40;99.90
33328;DHT22;19692;52.998;9.116;2022-07-09T11:54:57;22.40;99.90
33328;DHT22;19692;52.998;9.116;2022-07-09T11:57:25;22.50;99.90
33328;DHT22;19692;52.998;9.116;2022-07-09T11:59:52;22.70;99.90
33328;DHT22;19692;52.998;9.116;2022-07-09T12:02:26;22.80;99.90
33328;DHT22;19692;52.998;9.116;2022-07-09T12:04:54;21.90;99.90
33328;DHT22;19692;52.998;9.116;2022-07-09T12:07:19;21.60;99.90
33328;DHT22;19692;52.998;9.116;2022-07-09T12:09:45;21.40;99.90
33328;DHT22;19692;52.998;9.116;2022-07-09T12:12:11;21.50;99.90
33328;DHT22;19692;52.998;9.116;2022-07-09T12:14:37;21.60;99.90
33328;DHT22;19692;52.998;9.116;2022-07-09T12:17:03;22.00;99.90
33328;DHT22;19692;52.998;9.116;2022-07-09T12:19:29;22.00;99.90
33328;DHT22;19692;52.998;9.116;2022-07-09T12:21:55;21.50;99.90
33328;DHT22;19692;52.998;9.116;2022-07-09T12:24:21;21.10;99.90
33328;DHT22;19692;52.998;9.116;2022-07-09T12:26:47;20.40;99.90
33328;DHT22;19692;52.998;9.116;2022-07-09T12:29:12;20.00;99.90
33328;DHT22;19692;52.998;9.116;2022-07-09T12:31:38;19.90;99.90
33328;DHT22;19692;52.998;9.116;2022-07-09T12:34:04;19.70;99.90
33328;DHT22;19692;52.998;9.116;2022-07-09T12:36:31;19.50;99.90
33328;DHT22;19692;52.998;9.116;2022-07-09T12:38:57;19.30;99.90
33328;DHT22;19692;52.998;9.116;2022-07-09T12:41:23;19.30;99.90
33328;DHT22;19692;52.998;9.116;2022-07-09T12:43:48;19.30;99.90
33328;DHT22;19692;52.998;9.116;2022-07-09T12:46:14;19.50;99.90
33328;DHT22;19692;52.998;9.116;2022-07-09T12:48:40;19.40;99.90
33328;DHT22;19692;52.998;9.116;2022-07-09T12:51:06;19.20;99.90
33328;DHT22;19692;52.998;9.116;2022-07-09T12:53:31;19.20;99.90
33328;DHT22;19692;52.998;9.116;2022-07-09T12:55:57;19.30;99.90
33328;DHT22;19692;52.998;9.116;2022-07-09T12:58:23;19.50;99.90
33328;DHT22;19692;52.998;9.116;2022-07-09T13:00:48;19.80;99.90
33328;DHT22;19692;52.998;9.116;2022-07-09T13:03:14;20.00;99.90
33328;DHT22;19692;52.998;9.116;2022-07-09T13:05:40;20.30;99.90
33328;DHT22;19692;52.998;9.116;2022-07-09T13:08:06;20.40;99.90
33328;DHT22;19692;52.998;9.116;2022-07-09T13:10:31;20.40;99.90
33328;DHT22;19692;52.998;9.116;2022-07-09T13:12:57;20.60;99.90
33328;DHT22;19692;52.998;9.116;2022-07-09T13:15:23;20.70;99.90
33328;DHT22;19692;52.998;9.116;2022-07-09T13:17:49;20.90;99.90
33328;DHT22;19692;52.998;9.116;2022-07-09T13:20:15;21.10;99.90
33328;DHT22;19692;52.998;9.116;2022-07-09T13:22:42;21.20;99.90
33328;DHT22;19692;52.998;9.116;2022-07-09T13:25:07;21.20;99.90
33328;DHT22;19692;52.998;9.116;2022-07-09T13:27:33;21.30;99.90
33328;DHT22;19692;52.998;9.116;2022-07-09T13:29:59;21.50;99.90
33328;DHT22;19692;52.998;9.116;2022-07-09T13:32:25;21.70;99.90
33328;DHT22;19692;52.998;9.116;2022-07-09T13:34:52;21.60;99.90
33328;DHT22;19692;52.998;9.116;2022-07-09T13:37:19;21.50;99.90
33328;DHT22;19692;52.998;9.116;2022-07-09T13:39:45;21.40;99.90
33328;DHT22;19692;52.998;9.116;2022-07-09T13:42:11;21.50;99.90
33328;DHT22;19692;52.998;9.116;2022-07-09T13:44:36;21.40;99.90
33328;DHT22;19692;52.998;9.116;2022-07-09T13:47:02;21.30;99.90
33328;DHT22;19692;52.998;9.116;2022-07-09T13:49:28;21.50;99.90
33328;DHT22;19692;52.998;9.116;2022-07-09T13:51:54;21.50;99.90
33328;DHT22;19692;52.998;9.116;2022-07-09T13:54:20;21.60;99.90
33328;DHT22;19692;52.998;9.116;2022-07-09T13:56:46;21.30;99.90
33328;DHT22;19692;52.998;9.116;2022-07-09T13:59:12;21.50;99.90
33328;DHT22;19692;52.998;9.116;2022-07-09T14:01:37;21.80;99.90
33328;DHT22;19692;52.998;9.116;2022-07-09T14:04:03;22.20;99.90
33328;DHT22;19692;52.998;9.116;2022-07-09T14:06:29;22.30;99.90
33328;DHT22;19692;52.998;9.116;2022-07-09T14:08:55;21.90;99.90
33328;DHT22;19692;52.998;9.116;2022-07-09T14:11:21;21.50;99.90
33328;DHT22;19692;52.998;9.116;2022-07-09T14:13:47;21.60;99.90
33328;DHT22;19692;52.998;9.116;2022-07-09T14:16:14;21.80;99.90
33328;DHT22;19692;52.998;9.116;2022-07-09T14:18:40;21.70;99.90
33328;DHT22;19692;52.998;9.116;2022-07-09T14:21:06;21.30;99.90
33328;DHT22;19692;52.998;9.116;2022-07-09T14:23:31;20.80;99.90
33328;DHT22;19692;52.998;9.116;2022-07-09T14:25:57;20.80;99.90
33328;DHT22;19692;52.998;9.116;2022-07-09T14:28:23;20.50;99.90
33328;DHT22;19692;52.998;9.116;2022-07-09T14:30:49;20.70;99.90
33328;DHT22;19692;52.998;9.116;2022-07-09T14:33:14;20.80;99.90
33328;DHT22;19692;52.998;9.116;2022-07-09T14:35:40;20.20;99.90
33328;DHT22;19692;52.998;9.116;2022-07-09T14:38:06;19.70;99.90
33328;DHT22;19692;52.998;9.116;2022-07-09T14:40:32;19.80;99.90
33328;DHT22;19692;52.998;9.116;2022-07-09T14:42:57;20.00;99.90
33328;DHT22;19692;52.998;9.116;2022-07-09T14:45:23;20.10;99.90
33328;DHT22;19692;52.998;9.116;2022-07-09T14:50:30;19.90;99.90
33328;DHT22;19692;52.998;9.116;2022-07-09T14:52:56;20.40;99.90
33328;DHT22;19692;52.998;9.116;2022-07-09T14:55:21;20.60;99.90
33328;DHT22;19692;52.998;9.116;2022-07-09T14:57:47;20.60;99.90
33328;DHT22;19692;52.998;9.116;2022-07-09T15:00:13;20.70;99.90
33328;DHT22;19692;52.998;9.116;2022-07-09T15:02:41;20.80;99.90
33328;DHT22;19692;52.998;9.116;2022-07-09T15:05:07;21.10;99.90
33328;DHT22;19692;52.998;9.116;2022-07-09T15:07:33;21.20;99.90
33328;DHT22;19692;52.998;9.116;2022-07-09T15:10:01;20.70;99.90
33328;DHT22;19692;52.998;9.116;2022-07-09T15:12:28;20.40;99.90
33328;DHT22;19692;52.998;9.116;2022-07-09T15:14:54;20.10;99.90
33328;DHT22;19692;52.998;9.116;2022-07-09T15:17:19;20.00;99.90
33328;DHT22;19692;52.998;9.116;2022-07-09T15:19:45;20.20;99.90
33328;DHT22;19692;52.998;9.116;2022-07-09T15:22:11;20.60;99.90
33328;DHT22;19692;52.998;9.116;2022-07-09T15:24:37;20.60;99.90
33328;DHT22;19692;52.998;9.116;2022-07-09T15:27:03;20.00;99.90
33328;DHT22;19692;52.998;9.116;2022-07-09T15:29:28;19.70;99.90
33328;DHT22;19692;52.998;9.116;2022-07-09T15:31:54;19.40;99.90
33328;DHT22;19692;52.998;9.116;2022-07-09T15:34:20;19.50;99.90
33328;DHT22;19692;52.998;9.116;2022-07-09T15:36:46;19.50;99.90
33328;DHT22;19692;52.998;9.116;2022-07-09T15:39:11;19.70;99.90
33328;DHT22;19692;52.998;9.116;2022-07-09T15:41:37;19.70;99.90